Latest Weather Observations for Wattamolla

IDN60801

Issued at 8:04 am EDT Tuesday 23 December 2014 (issued every 30 minutes, with the page automatically refreshed every 10 minutes)

About weather observations | Map of weather stations | Latest weather observations for NSW | Other Formats
Station Details ID: 066208 Name: WATTAMOLLA AWS Lat: -34.14 Lon: 151.12 Height: 44.0 m
Data from the previous 72 hours. | See also: Recent months for locations in New South Wales
Date/Time
EDT
Temp
°C
App
Temp
°C
Dew
Point
Rel
Hum
%
Delta-T
°C
Wind Press
QNH
hPa
Press
MSL
hPa
Rain
since 9 am
mm
Dir
 
Spd
km/h
Gust
km/h
Spd
kts
Gust
kts
23/08:00am - - - - - NNE 22 30 12 16 - - -
23/07:30am - - - - - NNE 26 35 14 19 - - -
23/07:00am - - - - - NNE 22 32 12 17 - - -
23/06:30am - - - - - NNE 24 35 13 19 - - -
23/06:00am - - - - - NNE 24 32 13 17 - - -
23/05:30am - - - - - NNE 20 30 11 16 - - -
23/05:00am - - - - - NNE 20 28 11 15 - - -
23/04:30am - - - - - NE 19 28 10 15 - - -
23/04:00am - - - - - NNE 15 22 8 12 - - -
23/03:30am - - - - - NNE 20 30 11 16 - - -
23/03:00am - - - - - NNE 20 32 11 17 - - -
23/02:30am - - - - - NNE 24 35 13 19 - - -
23/02:00am - - - - - N 22 33 12 18 - - -
23/01:30am - - - - - N 26 35 14 19 - - -
23/01:00am - - - - - NNE 28 43 15 23 - - -
23/12:30am - - - - - NNE 28 37 15 20 - - -
23/12:09am - - - - - NNE 28 48 15 26 - - -
23/12:00am - - - - - NNE 30 41 16 22 - - -
 
Date/Time
EDT
Temp
°C
App
Temp
°C
Dew
Point
Rel
Hum
%
Delta-T
°C
Wind Press
QNH
hPa
Press
MSL
hPa
Rain
since 9 am
mm
Dir
 
Spd
km/h
Gust
km/h
Spd
kts
Gust
kts
22/11:48pm - - - - - NNE 28 50 15 27 - - -
22/11:30pm - - - - - NNE 30 39 16 21 - - -
22/11:00pm - - - - - NNE 32 41 17 22 - - -
22/10:49pm - - - - - NNE 30 48 16 26 - - -
22/10:30pm - - - - - NNE 28 37 15 20 - - -
22/10:00pm - - - - - NNE 32 43 17 23 - - -
22/09:30pm - - - - - N 28 37 15 20 - - -
22/09:00pm - - - - - NNE 32 46 17 25 - - -
22/08:30pm - - - - - NNE 30 41 16 22 - - -
22/08:00pm - - - - - NNE 30 41 16 22 - - -
22/07:30pm - - - - - NNE 32 46 17 25 - - -
22/07:06pm - - - - - NNE 30 48 16 26 - - -
22/07:00pm - - - - - NNE 32 46 17 25 - - -
22/06:43pm - - - - - NNE 30 48 16 26 - - -
22/06:30pm - - - - - NNE 30 41 16 22 - - -
22/06:00pm - - - - - NNE 26 41 14 22 - - -
22/05:30pm - - - - - NNE 35 52 19 28 - - -
22/05:00pm - - - - - NNE 37 56 20 30 - - -
22/04:32pm - - - - - NNE 33 52 18 28 - - -
22/04:30pm - - - - - NNE 35 52 19 28 - - -
22/04:00pm - - - - - NNE 33 54 18 29 - - -
22/03:30pm - - - - - NNE 33 61 18 33 - - -
22/03:03pm - - - - - NE 28 46 15 25 - - -
22/03:00pm - - - - - NE 30 46 16 25 - - -
22/02:30pm - - - - - NE 32 46 17 25 - - -
22/02:00pm - - - - - NE 30 43 16 23 - - -
22/01:30pm - - - - - NE 28 41 15 22 - - -
22/01:00pm - - - - - NE 32 43 17 23 - - -
22/12:30pm - - - - - NE 24 35 13 19 - - -
22/12:00pm - - - - - NE 24 - 13 - - - -
22/11:30am - - - - - NE 24 33 13 18 - - -
22/11:00am - - - - - NE 26 35 14 19 - - -
22/10:30am - - - - - NE 26 33 14 18 - - -
22/10:00am - - - - - NE 22 30 12 16 - - -
22/09:30am - - - - - NE 15 22 8 12 - - -
22/09:00am - - - - - NNE 15 20 8 11 - - -
22/08:30am - - - - - N 15 24 8 13 - - -
22/08:00am - - - - - N 11 17 6 9 - - -
22/07:30am - - - - - N 13 17 7 9 - - -
22/07:00am - - - - - N 11 13 6 7 - - -
22/06:30am - - - - - N 13 15 7 8 - - -
22/06:00am - - - - - N 13 17 7 9 - - -
22/05:30am - - - - - N 13 15 7 8 - - -
22/05:00am - - - - - N 17 20 9 11 - - -
22/04:30am - - - - - N 13 15 7 8 - - -
22/04:00am - - - - - N 11 17 6 9 - - -
22/03:30am - - - - - N 13 17 7 9 - - -
22/03:00am - - - - - N 13 15 7 8 - - -
22/02:30am - - - - - N 13 19 7 10 - - -
22/02:00am - - - - - NNE 13 17 7 9 - - -
22/01:30am - - - - - NNE 19 26 10 14 - - -
22/01:00am - - - - - NNE 24 32 13 17 - - -
22/12:30am - - - - - N 24 33 13 18 - - -
22/12:00am - - - - - N 24 33 13 18 - - -
 
Date/Time
EDT
Temp
°C
App
Temp
°C
Dew
Point
Rel
Hum
%
Delta-T
°C
Wind Press
QNH
hPa
Press
MSL
hPa
Rain
since 9 am
mm
Dir
 
Spd
km/h
Gust
km/h
Spd
kts
Gust
kts
21/11:30pm - - - - - NNE 24 32 13 17 - - -
21/11:00pm - - - - - N 28 35 15 19 - - -
21/10:30pm - - - - - NNE 24 35 13 19 - - -
21/10:00pm - - - - - NNE 20 33 11 18 - - -
21/09:30pm - - - - - NNE 26 37 14 20 - - -
21/09:00pm - - - - - NNE 26 35 14 19 - - -
21/08:30pm - - - - - NNE 26 37 14 20 - - -
21/08:00pm - - - - - NNE 26 41 14 22 - - -
21/07:30pm - - - - - NNE 24 33 13 18 - - -
21/07:07pm - - - - - NNE 28 48 15 26 - - -
21/07:00pm - - - - - NNE 28 39 15 21 - - -
21/06:30pm - - - - - NE 28 44 15 24 - - -
21/06:00pm - - - - - NE 26 39 14 21 - - -
21/05:30pm - - - - - NE 26 39 14 21 - - -
21/05:00pm - - - - - NE 28 39 15 21 - - -
21/04:30pm - - - - - NE 26 37 14 20 - - -
21/04:00pm - - - - - NE 26 35 14 19 - - -
21/03:30pm - - - - - NE 20 32 11 17 - - -
21/03:00pm - - - - - NE 26 37 14 20 - - -
21/02:30pm - - - - - NE 26 35 14 19 - - -
21/02:00pm - - - - - NE 22 32 12 17 - - -
21/01:30pm - - - - - NE 24 32 13 17 - - -
21/01:00pm - - - - - ENE 24 32 13 17 - - -
21/12:30pm - - - - - NE 24 30 13 16 - - -
21/12:00pm - - - - - ENE 22 32 12 17 - - -
21/11:30am - - - - - ENE 20 30 11 16 - - -
21/11:00am - - - - - ENE 20 30 11 16 - - -
21/10:30am - - - - - ENE 19 26 10 14 - - -
21/10:00am - - - - - NNE 19 32 10 17 - - -
21/09:30am - - - - - NNE 17 24 9 13 - - -
21/09:00am - - - - - NNE 17 26 9 14 - - -
21/08:30am - - - - - N 13 19 7 10 - - -
21/08:00am - - - - - N 9 15 5 8 - - -
21/07:30am - - - - - N 7 9 4 5 - - -
21/07:00am - - - - - NW 11 13 6 7 - - -
21/06:30am - - - - - NW 15 15 8 8 - - -
21/06:00am - - - - - NW 17 19 9 10 - - -
21/05:30am - - - - - NW 17 17 9 9 - - -
21/05:00am - - - - - NW 15 15 8 8 - - -
21/04:30am - - - - - NW 15 15 8 8 - - -
21/04:00am - - - - - NW 13 15 7 8 - - -
21/03:30am - - - - - NW 15 17 8 9 - - -
21/03:00am - - - - - NW 15 17 8 9 - - -
21/02:30am - - - - - NW 15 17 8 9 - - -
21/02:00am - - - - - NW 17 17 9 9 - - -
21/01:30am - - - - - NW 15 15 8 8 - - -
21/01:00am - - - - - NNW 13 13 7 7 - - -
21/12:30am - - - - - NNW 13 13 7 7 - - -
21/12:00am - - - - - NNW 13 15 7 8 - - -
 
Date/Time
EDT
Temp
°C
App
Temp
°C
Dew
Point
Rel
Hum
%
Delta-T
°C
Wind Press
QNH
hPa
Press
MSL
hPa
Rain
since 9 am
mm
Dir
 
Spd
km/h
Gust
km/h
Spd
kts
Gust
kts
20/11:30pm - - - - - NNW 13 15 7 8 - - -
20/11:00pm - - - - - NNW 9 13 5 7 - - -
20/10:30pm - - - - - N 11 13 6 7 - - -
20/10:00pm - - - - - NNW 9 11 5 6 - - -
20/09:30pm - - - - - N 9 11 5 6 - - -
20/09:00pm - - - - - NNE 9 13 5 7 - - -
20/08:30pm - - - - - NE 13 19 7 10 - - -
20/08:00pm - - - - - NE 13 20 7 11 - - -
20/07:30pm - - - - - NE 13 19 7 10 - - -
20/07:00pm - - - - - NE 15 22 8 12 - - -
20/06:30pm - - - - - ENE 13 19 7 10 - - -
20/06:00pm - - - - - ENE 15 20 8 11 - - -
20/05:30pm - - - - - ENE 15 22 8 12 - - -
20/05:00pm - - - - - ENE 17 24 9 13 - - -
20/04:30pm - - - - - E 17 22 9 12 - - -
20/04:00pm - - - - - E 15 22 8 12 - - -
20/03:30pm - - - - - E 15 22 8 12 - - -
20/03:00pm - - - - - E 15 20 8 11 - - -
20/02:30pm - - - - - E 15 20 8 11 - - -
20/02:00pm - - - - - E 11 17 6 9 - - -
20/01:30pm - - - - - ESE 13 19 7 10 - - -
20/01:00pm - - - - - SE 13 22 7 12 - - -
20/12:30pm - - - - - SE 13 19 7 10 - - -
20/12:00pm - - - - - SE 15 17 8 9 - - -
20/11:30am - - - - - SE 13 17 7 9 - - -
20/11:00am - - - - - SSE 13 17 7 9 - - -
20/10:30am - - - - - SSE 11 15 6 8 - - -
20/10:00am - - - - - S 13 15 7 8 - - -
20/09:30am - - - - - S 15 19 8 10 - - -
20/09:00am - - - - - S 13 19 7 10 - - -
20/08:30am - - - - - SSW 13 19 7 10 - - -

Other Formats:

Comma delimited format used in spreadsheet applications
http://www.bom.gov.au/fwo/IDN60801/IDN60801.95752.axf

JavaScript Object Notation format (JSON) in row-major order
http://www.bom.gov.au/fwo/IDN60801/IDN60801.95752.json